Time;durP1;ratioP1;P1;durP2;ratioP2;P2;SDS_P1;SDS_P2;PMS_P1;PMS_P2;Temp;Humidity;BMP_temperature;BMP_pressure;BME280_temperature;BME280_humidity;BME280_pressure;Samples;Min_cycle;Max_cycle;Signal;HPM_P1;HPM_P2
2022/04/02 00:00:36;;;;;;;6.20;5.60;;;6.80;67.30;;;-142.21;100.00;112049.66;4934236;29;20236;-75
2022/04/02 00:03:03;;;;;;;6.55;5.95;;;6.80;67.00;;;-142.21;100.00;112049.66;4954501;29;20288;-74
2022/04/02 00:05:30;;;;;;;6.28;5.70;;;6.80;66.90;;;-142.21;100.00;112049.66;4955650;29;20726;-74
2022/04/02 00:07:57;;;;;;;6.85;5.43;;;6.70;66.80;;;-142.21;100.00;112049.66;4954324;29;20212;-75
2022/04/02 00:10:27;;;;;;;6.30;5.70;;;6.80;66.90;;;-142.21;100.00;112049.66;4955196;29;20194;-75
2022/04/02 00:12:55;;;;;;;7.38;6.65;;;6.80;67.70;;;-142.21;100.00;112049.66;4943741;29;20201;-75
2022/04/02 00:15:23;;;;;;;7.85;5.85;;;6.80;66.90;;;-142.21;100.00;112049.66;4955515;28;20225;-75
2022/04/02 00:17:50;;;;;;;7.00;6.07;;;6.80;66.70;;;-142.21;100.00;112049.66;4954664;29;20207;-75
2022/04/02 00:20:17;;;;;;;7.22;5.90;;;6.90;68.00;;;-142.21;100.00;112049.66;4955479;29;20217;-74
2022/04/02 00:25:38;;;;;;;6.88;6.18;;;6.90;66.70;;;-142.21;100.00;112049.66;4942321;29;20212;-74
2022/04/02 00:28:05;;;;;;;6.25;5.65;;;6.90;67.30;;;-142.21;100.00;112049.66;4954478;29;20224;-74
2022/04/02 00:30:33;;;;;;;6.95;6.35;;;6.80;67.00;;;-142.21;100.00;112049.66;4937971;29;20589;-75
2022/04/02 00:33:03;;;;;;;7.03;6.20;;;6.80;67.60;;;-142.21;100.00;112049.66;4947439;29;20207;-74
2022/04/02 00:35:30;;;;;;;6.13;5.55;;;6.90;67.00;;;-142.21;100.00;112049.66;4942578;29;20209;-74
2022/04/02 00:37:57;;;;;;;8.02;6.40;;;6.80;66.80;;;-142.21;100.00;112049.66;4956557;29;20209;-74
2022/04/02 00:40:25;;;;;;;7.03;6.35;;;6.90;67.20;;;-142.21;100.00;112049.66;4954144;29;20682;-75
2022/04/02 00:42:53;;;;;;;8.48;6.72;;;6.90;67.20;;;-142.21;100.00;112049.66;4955375;29;20610;-74
2022/04/02 00:45:20;;;;;;;6.35;5.82;;;6.90;67.20;;;-142.21;100.00;112049.66;4954596;28;20320;-75
2022/04/02 00:47:47;;;;;;;8.15;6.18;;;6.90;66.90;;;-142.21;100.00;112049.66;4954937;29;20205;-74
2022/04/02 00:50:14;;;;;;;6.78;6.07;;;6.90;67.10;;;-142.21;100.00;112049.66;4954018;29;20216;-75
2022/04/02 00:52:43;;;;;;;6.85;6.20;;;6.70;66.90;;;-142.21;100.00;112049.66;4955026;29;20647;-74
2022/04/02 00:55:13;;;;;;;7.68;6.40;;;6.60;67.50;;;-142.21;100.00;112049.66;4954295;28;20240;-75
2022/04/02 00:57:40;;;;;;;7.18;6.47;;;6.50;67.70;;;-142.21;100.00;112049.66;4954697;29;20209;-75
2022/04/02 01:00:13;;;;;;;6.90;6.30;;;6.60;68.20;;;-142.21;100.00;112049.66;4953853;28;20693;-75
2022/04/02 01:02:40;;;;;;;6.72;5.97;;;6.70;68.00;;;-142.21;100.00;112049.66;4954014;29;20197;-75
2022/04/02 01:05:08;;;;;;;7.90;6.30;;;6.70;67.60;;;-142.21;100.00;112049.66;4954482;28;20290;-75
2022/04/02 01:07:36;;;;;;;7.07;5.82;;;6.70;67.60;;;-142.21;100.00;112049.66;4953537;29;20197;-75
2022/04/02 01:10:04;;;;;;;6.78;5.90;;;6.70;68.10;;;-142.21;100.00;112049.66;4954346;28;20223;-74
2022/04/02 01:12:31;;;;;;;6.00;5.40;;;6.70;67.60;;;-142.21;100.00;112049.66;4953523;29;20297;-76
2022/04/02 01:14:58;;;;;;;6.72;6.00;;;6.70;67.60;;;-142.21;100.00;112049.66;4954237;28;20765;-75
2022/04/02 01:17:27;;;;;;;6.22;5.63;;;6.70;67.60;;;-142.21;100.00;112049.66;4954092;29;20212;-75
2022/04/02 01:19:54;;;;;;;6.30;5.65;;;6.70;67.60;;;-142.21;100.00;112049.66;4953576;29;20227;-75
2022/04/02 01:22:23;;;;;;;6.82;5.57;;;6.70;67.30;;;-142.21;100.00;112049.66;4954019;29;20220;-74
2022/04/02 01:24:50;;;;;;;6.85;5.38;;;6.70;67.40;;;-142.21;100.00;112049.66;4952643;28;20243;-75
2022/04/02 01:27:18;;;;;;;5.80;5.30;;;6.60;67.80;;;-142.21;100.00;112049.66;4952726;29;20197;-74
2022/04/02 01:29:45;;;;;;;5.53;5.03;;;6.70;67.90;;;-142.21;100.00;112049.66;4953270;29;20197;-75
2022/04/02 01:32:12;;;;;;;5.35;4.85;;;6.70;67.70;;;-142.21;100.00;112049.66;4954254;29;20205;-76
2022/04/02 01:34:39;;;;;;;6.03;5.43;;;6.70;67.60;;;-142.21;100.00;112049.66;4952991;29;20205;-75
2022/04/02 01:37:06;;;;;;;5.90;5.28;;;6.70;67.60;;;-142.21;100.00;112049.66;4953966;29;20281;-74
2022/04/02 01:39:35;;;;;;;5.75;5.15;;;6.70;67.30;;;-142.21;100.00;112049.66;4953822;29;20228;-75
2022/04/02 01:42:06;;;;;;;7.03;5.70;;;6.60;67.50;;;-142.21;100.00;112049.66;4953586;29;20241;-75
2022/04/02 01:44:33;;;;;;;5.80;5.18;;;6.70;67.90;;;-142.21;100.00;112049.66;4954548;29;20197;-75
2022/04/02 01:47:01;;;;;;;6.40;5.72;;;6.70;67.90;;;-142.21;100.00;112049.66;4953680;29;20291;-75
2022/04/02 01:49:28;;;;;;;5.32;4.82;;;6.70;68.20;;;-142.21;100.00;112049.66;4953900;29;20197;-75
2022/04/02 01:51:55;;;;;;;8.23;5.50;;;6.70;67.60;;;-142.21;100.00;112049.66;4953224;29;20204;-75
2022/04/02 01:54:22;;;;;;;5.55;4.65;;;6.70;67.40;;;-142.21;100.00;112049.66;4954723;29;20205;-76
2022/04/02 01:56:52;;;;;;;5.75;5.15;;;6.60;67.90;;;-142.21;100.00;112049.66;4954577;28;20291;-75
2022/04/02 01:59:19;;;;;;;6.03;5.43;;;6.60;67.90;;;-142.21;100.00;112049.66;4954622;29;20314;-74
2022/04/02 02:01:46;;;;;;;5.25;4.65;;;6.50;67.90;;;-142.21;100.00;112049.66;4954483;28;20204;-75
2022/04/02 02:04:13;;;;;;;6.13;5.32;;;6.40;68.30;;;-142.21;100.00;112049.66;4953339;28;20303;-75
2022/04/02 02:06:40;;;;;;;6.07;4.85;;;6.50;68.70;;;-142.21;100.00;112049.66;4954643;28;20205;-75
2022/04/02 02:09:08;;;;;;;6.63;4.95;;;6.50;68.50;;;-142.21;100.00;112049.66;4956915;29;20288;-74
2022/04/02 02:11:36;;;;;;;6.15;4.93;;;6.60;68.00;;;-142.21;100.00;112049.66;4957331;28;20229;-75
2022/04/02 02:14:04;;;;;;;5.82;4.65;;;6.60;68.20;;;-142.21;100.00;112049.66;4957026;28;20308;-75
2022/04/02 02:16:31;;;;;;;5.25;4.75;;;6.60;68.40;;;-142.21;100.00;112049.66;4957022;29;20580;-74
2022/04/02 02:18:58;;;;;;;5.32;4.82;;;6.50;68.20;;;-142.21;100.00;112049.66;4957423;28;20211;-74
2022/04/02 02:21:26;;;;;;;5.82;4.55;;;6.50;68.50;;;-142.21;100.00;112049.66;4956997;29;20213;-74
2022/04/02 02:23:53;;;;;;;6.72;5.03;;;6.60;68.60;;;-142.21;100.00;112049.66;4957219;28;20260;-75
2022/04/02 02:26:20;;;;;;;5.97;5.05;;;6.50;68.50;;;-142.21;100.00;112049.66;4956134;29;20208;-75
2022/04/02 02:28:49;;;;;;;5.93;4.63;;;6.50;68.50;;;-142.21;100.00;112049.66;4940367;29;20289;-75
2022/04/02 02:31:17;;;;;;;5.97;5.30;;;6.60;68.30;;;-142.21;100.00;112049.66;4956204;29;20205;-73
2022/04/02 02:36:29;;;;;;;6.05;5.30;;;6.60;68.50;;;-142.21;100.00;112049.66;4956511;29;20584;-74
2022/04/02 02:38:56;;;;;;;6.07;5.03;;;6.50;68.60;;;-142.21;100.00;112049.66;4951637;29;20201;-75
2022/04/02 02:41:23;;;;;;;5.40;4.88;;;6.50;68.60;;;-142.21;100.00;112049.66;4956741;28;20260;-75
2022/04/02 02:43:51;;;;;;;6.25;5.18;;;6.50;68.90;;;-142.21;100.00;112049.66;4956273;29;20290;-75
2022/04/02 02:46:19;;;;;;;5.78;5.25;;;6.60;68.60;;;-142.21;100.00;112049.66;4956670;29;20197;-75
2022/04/02 02:48:47;;;;;;;5.60;5.00;;;6.60;68.80;;;-142.21;100.00;112049.66;4953610;29;20284;-75
2022/04/02 02:51:14;;;;;;;5.47;4.93;;;6.60;68.60;;;-142.21;100.00;112049.66;4957224;29;20206;-76
2022/04/02 02:53:44;;;;;;;7.18;5.70;;;6.50;68.50;;;-142.21;100.00;112049.66;4956561;29;20202;-74
2022/04/02 02:56:11;;;;;;;6.07;5.35;;;6.60;68.80;;;-142.21;100.00;112049.66;4956082;29;20609;-75
2022/04/02 02:58:38;;;;;;;6.22;5.65;;;6.60;68.80;;;-142.21;100.00;112049.66;4956877;28;20197;-75
2022/04/02 03:01:06;;;;;;;6.38;5.55;;;6.60;68.50;;;-142.21;100.00;112049.66;4956108;29;20221;-74
2022/04/02 03:03:34;;;;;;;6.45;5.82;;;6.60;68.60;;;-142.21;100.00;112049.66;4956252;29;20558;-74
2022/04/02 03:06:01;;;;;;;6.80;6.10;;;6.60;68.80;;;-142.21;100.00;112049.66;4955666;28;20679;-75
2022/04/02 03:08:29;;;;;;;7.40;6.70;;;6.60;68.90;;;-142.21;100.00;112049.66;4956693;28;20548;-75
2022/04/02 03:10:56;;;;;;;6.85;6.25;;;6.60;69.00;;;-142.21;100.00;112049.66;4955973;29;20236;-75
2022/04/02 03:13:23;;;;;;;7.68;6.88;;;6.50;68.80;;;-142.21;100.00;112049.66;4956680;28;20299;-74
2022/04/02 03:15:51;;;;;;;8.50;7.60;;;6.60;68.80;;;-142.21;100.00;112049.66;4956482;28;20229;-74
2022/04/02 03:18:19;;;;;;;8.27;6.80;;;6.60;68.40;;;-142.21;100.00;112049.66;4955261;28;20228;-74
2022/04/02 03:20:48;;;;;;;7.25;6.53;;;6.70;68.60;;;-142.21;100.00;112049.66;4956622;29;20312;-74
2022/04/02 03:23:15;;;;;;;6.85;6.25;;;6.60;68.40;;;-142.21;100.00;112049.66;4954347;28;20589;-73
2022/04/02 03:25:42;;;;;;;6.70;6.10;;;6.60;68.70;;;-142.21;100.00;112049.66;4956214;29;20673;-74
2022/04/02 03:28:09;;;;;;;7.53;6.70;;;6.50;68.70;;;-142.21;100.00;112049.66;4954992;28;20209;-76
2022/04/02 03:30:38;;;;;;;7.40;6.70;;;6.50;69.20;;;-142.21;100.00;112049.66;4955727;29;20198;-75
2022/04/02 03:33:05;;;;;;;7.13;6.47;;;6.40;68.80;;;-142.21;100.00;112049.66;4956044;28;20260;-76
2022/04/02 03:35:32;;;;;;;7.25;6.55;;;6.50;69.10;;;-142.21;100.00;112049.66;4944997;29;20617;-75
2022/04/02 03:38:01;;;;;;;7.97;7.10;;;6.50;68.90;;;-142.21;100.00;112049.66;4956036;29;20215;-75
2022/04/02 03:40:28;;;;;;;6.63;5.90;;;6.50;68.60;;;-142.21;100.00;112049.66;4955486;29;20233;-74
2022/04/02 03:42:55;;;;;;;9.50;7.00;;;6.60;68.80;;;-142.21;100.00;112049.66;4955795;29;20654;-75
2022/04/02 03:45:23;;;;;;;7.63;6.93;;;6.50;68.80;;;-142.21;100.00;112049.66;4954678;29;20252;-75
2022/04/02 03:47:50;;;;;;;7.70;6.90;;;6.50;69.00;;;-142.21;100.00;112049.66;4955832;29;20546;-75
2022/04/02 03:50:18;;;;;;;6.95;6.15;;;6.50;68.60;;;-142.21;100.00;112049.66;4953167;29;20197;-74
2022/04/02 03:52:47;;;;;;;8.52;6.70;;;6.60;69.30;;;-142.21;100.00;112049.66;4954749;28;20205;-74
2022/04/02 03:55:16;;;;;;;9.32;7.25;;;6.50;68.90;;;-142.21;100.00;112049.66;4937521;29;20217;-74
2022/04/02 03:57:47;;;;;;;7.93;6.85;;;6.50;69.00;;;-142.21;100.00;112049.66;4937595;29;20285;-74
2022/04/02 04:00:15;;;;;;;7.80;6.88;;;6.50;69.30;;;-142.21;100.00;112049.66;4955797;29;20292;-75
2022/04/02 04:02:43;;;;;;;7.68;6.90;;;6.50;69.30;;;-142.21;100.00;112049.66;4954670;29;20206;-74
2022/04/02 04:05:10;;;;;;;7.97;7.05;;;6.40;69.70;;;-142.21;100.00;112049.66;4954941;28;20278;-75
2022/04/02 04:07:38;;;;;;;8.25;7.25;;;6.50;69.30;;;-142.21;100.00;112049.66;4955062;28;20655;-75
2022/04/02 04:10:06;;;;;;;8.18;7.38;;;6.50;69.50;;;-142.21;100.00;112049.66;4955098;28;20201;-75
2022/04/02 04:12:35;;;;;;;7.70;6.90;;;6.50;68.80;;;-142.21;100.00;112049.66;4948071;29;20264;-75
2022/04/02 04:15:02;;;;;;;7.95;7.18;;;6.50;68.80;;;-142.21;100.00;112049.66;4937211;29;20228;-74
2022/04/02 04:17:29;;;;;;;9.18;6.95;;;6.50;68.80;;;-142.21;100.00;112049.66;4955045;29;20198;-74
2022/04/02 04:19:56;;;;;;;7.47;6.70;;;6.50;68.90;;;-142.21;100.00;112049.66;4954871;29;20237;-74
2022/04/02 04:22:23;;;;;;;7.88;6.72;;;6.50;69.10;;;-142.21;100.00;112049.66;4955335;29;20205;-74
2022/04/02 04:24:50;;;;;;;6.30;5.75;;;6.50;69.10;;;-142.21;100.00;112049.66;4931566;29;20213;-74
2022/04/02 04:27:18;;;;;;;7.78;5.93;;;6.40;69.20;;;-142.21;100.00;112049.66;4917854;29;20230;-73
2022/04/02 04:29:46;;;;;;;6.82;6.13;;;6.50;69.30;;;-142.21;100.00;112049.66;4929050;29;20252;-75
2022/04/02 04:32:13;;;;;;;7.25;6.55;;;6.40;69.50;;;-142.21;100.00;112049.66;4927196;29;20214;-75
2022/04/02 04:34:40;;;;;;;6.20;5.60;;;6.50;69.20;;;-142.21;100.00;112049.66;4923656;29;20230;-75
2022/04/02 04:37:08;;;;;;;6.05;5.53;;;6.50;68.90;;;-142.21;100.00;112049.66;4918781;29;20556;-74
2022/04/02 04:39:35;;;;;;;6.75;6.18;;;6.50;69.00;;;-142.21;100.00;112049.66;4925878;29;20198;-75
2022/04/02 04:42:02;;;;;;;7.63;6.53;;;6.50;68.90;;;-142.21;100.00;112049.66;4921599;29;20253;-75
2022/04/02 04:44:29;;;;;;;6.72;6.15;;;6.50;69.20;;;-142.21;100.00;112049.66;4921101;29;20202;-75
2022/04/02 04:46:57;;;;;;;6.53;5.75;;;6.40;69.10;;;-142.21;100.00;112049.66;4923334;29;20213;-74
2022/04/02 04:49:25;;;;;;;7.28;6.57;;;6.40;69.30;;;-142.21;100.00;112049.66;4926780;29;20207;-74
2022/04/02 04:51:52;;;;;;;7.55;6.88;;;6.20;70.10;;;-142.21;100.00;112049.66;4934383;29;20208;-75
2022/04/02 04:54:19;;;;;;;7.90;6.13;;;6.20;70.40;;;-142.21;100.00;112049.66;4918384;29;20210;-75
2022/04/02 04:56:46;;;;;;;6.95;6.28;;;6.20;70.00;;;-142.21;100.00;112049.66;4934958;29;20212;-75
2022/04/02 04:59:13;;;;;;;6.40;5.80;;;6.30;69.90;;;-142.21;100.00;112049.66;4925777;29;20206;-76
2022/04/02 05:01:41;;;;;;;6.22;5.00;;;6.30;69.90;;;-142.21;100.00;112049.66;4927165;29;20226;-75
2022/04/02 05:04:10;;;;;;;6.65;5.95;;;6.30;70.10;;;-142.21;100.00;112049.66;4933511;29;20305;-73
2022/04/02 05:06:37;;;;;;;6.20;5.30;;;6.30;69.80;;;-142.21;100.00;112049.66;4928860;29;20618;-75
2022/04/02 05:09:06;;;;;;;6.72;6.10;;;6.30;69.80;;;-142.21;100.00;112049.66;4929202;29;20612;-76
2022/04/02 05:11:34;;;;;;;6.88;5.30;;;6.30;69.80;;;-142.21;100.00;112049.66;4928276;29;20198;-75
2022/04/02 05:14:02;;;;;;;5.95;5.35;;;6.40;69.60;;;-142.21;100.00;112049.66;4927454;29;20240;-75
2022/04/02 05:16:29;;;;;;;6.10;5.50;;;6.40;69.10;;;-142.21;100.00;112049.66;4920036;29;20298;-75
2022/04/02 05:18:56;;;;;;;5.78;5.22;;;6.40;69.70;;;-142.21;100.00;112049.66;4924405;29;20202;-74
2022/04/02 05:21:26;;;;;;;5.95;5.35;;;6.40;69.50;;;-142.21;100.00;112049.66;4911015;29;20268;-76
2022/04/02 05:23:53;;;;;;;5.53;5.03;;;6.30;70.40;;;-142.21;100.00;112049.66;4946136;28;20244;-75
2022/04/02 05:26:21;;;;;;;6.50;5.80;;;6.30;69.80;;;-142.21;100.00;112049.66;4953978;28;20224;-75
2022/04/02 05:28:48;;;;;;;6.00;5.40;;;6.30;69.70;;;-142.21;100.00;112049.66;4953515;29;20256;-75
2022/04/02 05:31:15;;;;;;;6.28;5.70;;;6.30;69.60;;;-142.21;100.00;112049.66;4954324;28;20237;-75
2022/04/02 05:33:42;;;;;;;5.57;4.97;;;6.30;69.70;;;-142.21;100.00;112049.66;4952988;29;20213;-75
2022/04/02 05:36:10;;;;;;;5.75;5.15;;;6.30;69.70;;;-142.21;100.00;112049.66;4951614;28;20296;-75
2022/04/02 05:38:38;;;;;;;6.80;6.10;;;6.30;69.80;;;-142.21;100.00;112049.66;4953475;29;20201;-74
2022/04/02 05:41:05;;;;;;;6.22;5.63;;;6.30;69.80;;;-142.21;100.00;112049.66;4953766;28;20666;-75
2022/04/02 05:43:33;;;;;;;6.65;6.05;;;6.30;69.40;;;-142.21;100.00;112049.66;4957046;28;20305;-74
2022/04/02 05:46:00;;;;;;;5.90;5.40;;;6.20;69.70;;;-142.21;100.00;112049.66;4949098;28;20297;-75
2022/04/02 05:48:29;;;;;;;6.65;6.05;;;6.30;69.80;;;-142.21;100.00;112049.66;4959993;28;20201;-75
2022/04/02 05:50:56;;;;;;;5.80;4.85;;;6.20;70.20;;;-142.21;100.00;112049.66;4957375;29;20288;-75
2022/04/02 05:53:24;;;;;;;5.88;5.28;;;6.20;69.70;;;-142.21;100.00;112049.66;4957645;29;20209;-76
2022/04/02 05:55:53;;;;;;;6.97;5.57;;;6.20;70.10;;;-142.21;100.00;112049.66;4958308;28;20209;-74
2022/04/02 05:58:21;;;;;;;5.78;5.10;;;6.20;70.80;;;-142.21;100.00;112049.66;4957341;28;20295;-74
2022/04/02 06:00:49;;;;;;;5.78;5.28;;;6.20;69.90;;;-142.21;100.00;112049.66;4957560;28;20228;-73
2022/04/02 06:03:19;;;;;;;5.47;4.95;;;6.20;71.10;;;-142.21;100.00;112049.66;4957261;28;20216;-75
2022/04/02 06:05:48;;;;;;;5.35;4.85;;;6.20;70.00;;;-142.21;100.00;112049.66;4957662;29;20201;-73
2022/04/02 06:08:16;;;;;;;5.47;4.97;;;6.20;70.10;;;-142.21;100.00;112049.66;4956893;29;20686;-74
2022/04/02 06:10:45;;;;;;;5.90;5.00;;;6.20;69.70;;;-142.21;100.00;112049.66;4957544;29;20204;-74
2022/04/02 06:13:14;;;;;;;5.40;4.90;;;6.20;70.30;;;-142.21;100.00;112049.66;4956772;28;20539;-74
2022/04/02 06:15:42;;;;;;;7.28;4.85;;;6.20;70.00;;;-142.21;100.00;112049.66;4930496;29;20563;-75
2022/04/02 06:18:09;;;;;;;5.47;4.50;;;6.20;70.40;;;-142.21;100.00;112049.66;4957252;28;20209;-75
2022/04/02 06:20:36;;;;;;;5.07;4.53;;;6.30;70.60;;;-142.21;100.00;112049.66;4957315;29;20235;-74
2022/04/02 06:23:03;;;;;;;4.07;3.67;;;6.30;69.80;;;-142.21;100.00;112049.66;4956358;28;20239;-74
2022/04/02 06:25:30;;;;;;;4.57;4.15;;;6.20;69.70;;;-142.21;100.00;112049.66;4956560;28;20201;-74
2022/04/02 06:27:58;;;;;;;5.32;4.20;;;6.30;69.90;;;-142.21;100.00;112049.66;4957410;29;20236;-74
2022/04/02 06:30:28;;;;;;;4.70;4.20;;;6.20;69.70;;;-142.21;100.00;112049.66;4956694;28;20209;-74
2022/04/02 06:33:00;;;;;;;4.50;3.90;;;6.30;70.20;;;-142.21;100.00;112049.66;4955977;29;20200;-74
2022/04/02 06:35:28;;;;;;;4.60;4.20;;;6.30;70.40;;;-142.21;100.00;112049.66;4956250;29;20673;-74
2022/04/02 06:37:58;;;;;;;4.25;3.67;;;6.30;70.20;;;-142.21;100.00;112049.66;4956347;29;20296;-74
2022/04/02 06:40:26;;;;;;;5.95;4.00;;;6.30;70.10;;;-142.21;100.00;112049.66;4956056;29;20201;-74
2022/04/02 06:42:56;;;;;;;3.65;3.35;;;6.30;69.80;;;-142.21;100.00;112049.66;4955615;29;20666;-74
2022/04/02 06:45:24;;;;;;;4.25;3.70;;;6.30;69.80;;;-142.21;100.00;112049.66;4943799;29;20228;-74
2022/04/02 06:47:53;;;;;;;3.88;3.47;;;6.40;69.80;;;-142.21;100.00;112049.66;4956399;29;20300;-74
2022/04/02 06:50:20;;;;;;;4.10;3.72;;;6.30;69.70;;;-142.21;100.00;112049.66;4955754;29;20201;-74
2022/04/02 06:52:47;;;;;;;4.30;3.90;;;6.30;69.80;;;-142.21;100.00;112049.66;4945535;28;20309;-73
2022/04/02 06:55:16;;;;;;;5.55;3.95;;;6.30;69.90;;;-142.21;100.00;112049.66;4956880;29;20228;-74
2022/04/02 06:57:45;;;;;;;5.95;4.15;;;6.40;69.90;;;-142.21;100.00;112049.66;4956164;28;20209;-74
2022/04/02 07:00:14;;;;;;;4.20;3.80;;;6.30;69.50;;;-142.21;100.00;112049.66;4955952;29;20207;-74
2022/04/02 07:02:42;;;;;;;4.65;4.13;;;6.30;69.70;;;-142.21;100.00;112049.66;4955819;28;20217;-74
2022/04/02 07:05:12;;;;;;;4.65;3.83;;;6.30;69.60;;;-142.21;100.00;112049.66;4955345;29;20661;-74
2022/04/02 07:07:39;;;;;;;4.70;4.30;;;6.30;69.80;;;-142.21;100.00;112049.66;4955637;29;20205;-74
2022/04/02 07:10:08;;;;;;;5.55;4.57;;;6.40;69.80;;;-142.21;100.00;112049.66;4955968;28;20209;-75
2022/04/02 07:12:35;;;;;;;4.60;4.20;;;6.50;69.30;;;-142.21;100.00;112049.66;4955288;28;20516;-74
2022/04/02 07:15:04;;;;;;;4.45;4.03;;;6.50;70.50;;;-142.21;100.00;112049.66;4955115;28;20584;-74
2022/04/02 07:17:32;;;;;;;5.32;4.07;;;6.50;69.60;;;-142.21;100.00;112049.66;4956528;28;20582;-74
2022/04/02 07:20:01;;;;;;;5.47;4.07;;;6.50;69.60;;;-142.21;100.00;112049.66;4955413;28;20241;-74
2022/04/02 07:22:30;;;;;;;5.10;4.25;;;6.50;69.10;;;-142.21;100.00;112049.66;4954636;28;20240;-74
2022/04/02 07:24:57;;;;;;;6.13;3.55;;;6.50;69.20;;;-142.21;100.00;112049.66;4955566;29;20601;-74
2022/04/02 07:27:29;;;;;;;4.45;4.05;;;6.60;69.60;;;-142.21;100.00;112049.66;4951118;29;20205;-74
2022/04/02 07:29:58;;;;;;;6.15;4.13;;;6.60;69.50;;;-142.21;100.00;112049.66;4955528;29;20513;-74
2022/04/02 07:32:26;;;;;;;5.68;3.53;;;6.70;69.20;;;-142.21;100.00;112049.66;4954733;29;20197;-73
2022/04/02 07:34:53;;;;;;;6.07;3.72;;;6.80;69.00;;;-142.21;100.00;112049.66;4958205;28;20212;-74
2022/04/02 07:37:42;;;;;;;3.97;3.53;;;6.70;68.10;;;-142.21;100.00;112049.66;4955363;28;20240;-74
2022/04/02 07:40:18;;;;;;;4.38;3.90;;;6.70;69.10;;;-142.21;100.00;112049.66;4955651;29;20623;-72
2022/04/02 07:43:02;;;;;;;7.10;3.90;;;6.70;69.10;;;-142.21;100.00;112049.66;4956016;29;20672;-73
2022/04/02 07:45:40;;;;;;;4.78;3.70;;;6.70;68.90;;;-142.21;100.00;112049.66;4957279;28;20198;-74
2022/04/02 07:48:10;;;;;;;3.72;3.42;;;6.70;69.00;;;-142.21;100.00;112049.66;4955420;29;20209;-73
2022/04/02 07:50:43;;;;;;;3.95;3.55;;;6.80;69.10;;;-142.21;100.00;112049.66;4955461;29;20212;-74
2022/04/02 07:53:21;;;;;;;3.83;3.42;;;6.80;68.50;;;-142.21;100.00;112049.66;4955170;29;20201;-74
2022/04/02 07:55:55;;;;;;;4.03;3.47;;;6.80;68.60;;;-142.21;100.00;112049.66;4954381;29;20237;-73
2022/04/02 07:58:29;;;;;;;4.47;3.60;;;6.80;68.30;;;-142.21;100.00;112049.66;4955184;29;20233;-74
2022/04/02 08:01:02;;;;;;;4.10;3.55;;;6.80;68.60;;;-142.21;100.00;112049.66;4955828;29;20287;-73
2022/04/02 08:03:32;;;;;;;4.72;3.90;;;6.80;68.50;;;-142.21;100.00;112049.66;4954828;29;20189;-74
2022/04/02 08:06:00;;;;;;;5.32;3.28;;;6.80;69.00;;;-142.21;100.00;112049.66;4953850;28;20213;-73
2022/04/02 08:08:31;;;;;;;4.65;3.90;;;6.90;68.10;;;-142.21;100.00;112049.66;4955011;28;20666;-74
2022/04/02 08:10:58;;;;;;;4.78;3.60;;;6.80;68.50;;;-142.21;100.00;112049.66;4955422;29;20253;-73
2022/04/02 08:13:28;;;;;;;4.10;3.70;;;6.90;68.10;;;-142.21;100.00;112049.66;4954889;29;20202;-73
2022/04/02 08:15:57;;;;;;;4.82;4.07;;;6.90;67.80;;;-142.21;100.00;112049.66;4955321;28;20280;-74
2022/04/02 08:18:26;;;;;;;4.63;4.13;;;6.80;68.30;;;-142.21;100.00;112049.66;4954504;28;20205;-74
2022/04/02 08:20:55;;;;;;;4.35;3.90;;;6.80;68.10;;;-142.21;100.00;112049.66;4955197;28;20229;-74
2022/04/02 08:23:23;;;;;;;4.07;3.67;;;6.90;68.10;;;-142.21;100.00;112049.66;4953646;28;20292;-74
2022/04/02 08:26:13;;;;;;;5.15;4.03;;;6.90;67.50;;;-142.21;100.00;112049.66;4955667;28;20296;-72
2022/04/02 08:28:59;;;;;;;4.68;4.18;;;6.90;67.90;;;-142.21;100.00;112049.66;4954348;29;20200;-73
2022/04/02 08:31:37;;;;;;;4.18;3.78;;;6.90;67.30;;;-142.21;100.00;112049.66;4920636;29;20212;-73
2022/04/02 08:34:21;;;;;;;5.82;3.92;;;6.90;67.80;;;-142.21;100.00;112049.66;4954567;29;20208;-74
2022/04/02 08:36:56;;;;;;;7.20;4.53;;;7.00;68.20;;;-142.21;100.00;112049.66;4954921;29;20221;-72
2022/04/02 08:39:35;;;;;;;4.88;4.13;;;7.10;68.20;;;-142.21;100.00;112049.66;4969492;28;20222;-74
2022/04/02 08:43:03;;;;;;;3.97;3.65;;;7.10;67.80;;;-142.21;100.00;112049.66;4955563;28;20209;-73
2022/04/02 08:45:34;;;;;;;4.18;3.78;;;7.20;67.20;;;-142.21;100.00;112049.66;4935123;29;20208;-72
2022/04/02 08:48:27;;;;;;;5.15;4.40;;;7.10;67.60;;;-142.21;100.00;112049.66;4954711;29;20190;-72
2022/04/02 08:51:14;;;;;;;4.82;4.10;;;7.10;67.20;;;-142.21;100.00;112049.66;4942802;29;20190;-73
2022/04/02 08:53:57;;;;;;;4.25;3.80;;;7.00;67.80;;;-142.21;100.00;112049.66;4953903;29;20199;-73
2022/04/02 08:56:29;;;;;;;4.88;4.35;;;7.10;67.50;;;-142.21;100.00;112049.66;4954453;29;20205;-73
2022/04/02 08:59:05;;;;;;;5.82;4.43;;;7.00;67.30;;;-142.21;100.00;112049.66;4968711;28;20201;-74
2022/04/02 09:01:41;;;;;;;5.70;4.40;;;7.00;68.10;;;-142.21;100.00;112049.66;4962504;28;20224;-73
2022/04/02 09:05:01;;;;;;;6.05;4.00;;;7.10;68.20;;;-142.21;100.00;112049.66;4952547;29;20220;-74
2022/04/02 09:08:30;;;;;;;4.20;3.80;;;7.20;67.80;;;-142.21;100.00;112049.66;4944390;29;20284;-73
2022/04/02 09:11:23;;;;;;;4.25;3.85;;;7.20;66.60;;;-142.21;100.00;112049.66;4928010;29;20303;-74
2022/04/02 09:14:46;;;;;;;4.50;4.10;;;7.10;66.60;;;-142.21;100.00;112049.66;4961000;28;20205;-71
2022/04/02 09:17:36;;;;;;;5.13;4.30;;;7.00;67.00;;;-142.21;100.00;112049.66;4955348;28;20284;-73
2022/04/02 09:20:26;;;;;;;4.57;3.97;;;7.00;66.90;;;-142.21;100.00;112049.66;4955219;29;20201;-73
2022/04/02 09:23:10;;;;;;;4.43;4.00;;;7.00;67.50;;;-142.21;100.00;112049.66;4953769;29;20243;-72
2022/04/02 09:26:37;;;;;;;5.80;4.63;;;7.00;67.70;;;-142.21;100.00;112049.66;4956196;29;20507;-73
2022/04/02 09:29:18;;;;;;;5.60;4.18;;;7.10;67.00;;;-142.21;100.00;112049.66;4959656;28;20211;-73
2022/04/02 09:32:53;;;;;;;5.28;4.22;;;7.00;67.90;;;-142.21;100.00;112049.66;4936998;28;20194;-74
2022/04/02 09:35:57;;;;;;;5.35;4.07;;;7.00;67.20;;;-142.21;100.00;112049.66;4954638;29;20603;-73
2022/04/02 09:39:01;;;;;;;6.40;4.47;;;6.80;66.90;;;-142.21;100.00;112049.66;4939760;29;20244;-73
2022/04/02 09:42:23;;;;;;;4.30;3.85;;;6.80;67.70;;;-142.21;100.00;112049.66;4954384;29;20701;-72
2022/04/02 09:45:00;;;;;;;4.85;4.25;;;6.90;68.60;;;-142.21;100.00;112049.66;4934541;29;20225;-72
2022/04/02 09:48:08;;;;;;;10.32;4.30;;;6.90;68.20;;;-142.21;100.00;112049.66;4935203;29;20194;-73
2022/04/02 09:50:37;;;;;;;4.97;4.47;;;6.90;68.10;;;-142.21;100.00;112049.66;4948205;29;20193;-72
2022/04/02 09:53:25;;;;;;;4.43;4.03;;;7.00;68.60;;;-142.21;100.00;112049.66;4953511;29;20292;-73
2022/04/02 09:56:16;;;;;;;4.82;4.32;;;6.90;67.90;;;-142.21;100.00;112049.66;4953991;29;20292;-73
2022/04/02 09:59:03;;;;;;;8.30;4.97;;;6.90;68.70;;;-142.21;100.00;112049.66;4954406;29;20196;-72
2022/04/02 10:01:43;;;;;;;5.18;4.68;;;6.90;68.70;;;-142.21;100.00;112049.66;4953497;29;20196;-72
2022/04/02 10:04:41;;;;;;;4.60;4.15;;;6.90;68.50;;;-142.21;100.00;112049.66;4953291;29;20717;-72
2022/04/02 10:07:24;;;;;;;5.30;4.20;;;7.00;68.80;;;-142.21;100.00;112049.66;4954061;29;20282;-73
2022/04/02 10:09:56;;;;;;;8.68;4.47;;;7.10;68.50;;;-142.21;100.00;112049.66;4935349;29;20230;-73
2022/04/02 10:12:28;;;;;;;6.15;4.43;;;7.10;68.20;;;-142.21;100.00;112049.66;4934695;29;20285;-73
2022/04/02 10:14:59;;;;;;;6.15;4.60;;;7.10;68.50;;;-142.21;100.00;112049.66;4934657;29;20229;-73
2022/04/02 10:17:30;;;;;;;4.20;3.80;;;7.10;68.00;;;-142.21;100.00;112049.66;4934633;29;20241;-73
2022/04/02 10:19:59;;;;;;;5.70;4.50;;;7.00;68.20;;;-142.21;100.00;112049.66;4942390;29;20256;-73
2022/04/02 10:22:42;;;;;;;5.60;4.30;;;7.10;68.40;;;-142.21;100.00;112049.66;4953259;29;20495;-73
2022/04/02 10:25:13;;;;;;;5.15;4.25;;;7.10;68.00;;;-142.21;100.00;112049.66;4948746;29;20228;-73